Time;durP1;ratioP1;P1;durP2;ratioP2;P2;SDS_P1;SDS_P2;PMS_P1;PMS_P2;Temp;Humidity;BMP_temperature;BMP_pressure;BME280_temperature;BME280_humidity;BME280_pressure;Samples;Min_cycle;Max_cycle;Signal;HPM_P1;HPM_P2
2023/04/20 00:00:28;;;;;;;;;;;18.40;54.80;;;;;;6147992;29;19938;-66
2023/04/20 00:03:28;;;;;;;;;;;18.40;54.70;;;;;;6148426;28;20004;-67
2023/04/20 00:06:30;;;;;;;;;;;18.40;54.80;;;;;;6152576;29;19911;-67
2023/04/20 00:09:30;;;;;;;;;;;18.40;54.60;;;;;;6152615;29;19923;-67
2023/04/20 00:12:31;;;;;;;;;;;18.40;54.80;;;;;;6152557;29;20373;-66
2023/04/20 00:15:31;;;;;;;;;;;18.40;54.80;;;;;;6152274;29;19934;-67
2023/04/20 00:18:32;;;;;;;;;;;18.40;54.80;;;;;;6152351;29;20010;-66
2023/04/20 00:21:33;;;;;;;;;;;18.40;54.70;;;;;;6166996;28;19911;-67
2023/04/20 00:24:34;;;;;;;;;;;18.40;54.80;;;;;;6144607;28;20001;-67
2023/04/20 00:27:34;;;;;;;;;;;18.40;54.80;;;;;;6152200;29;20406;-67
2023/04/20 00:30:35;;;;;;;;;;;18.40;54.80;;;;;;6144119;29;20607;-66
2023/04/20 00:33:36;;;;;;;;;;;18.40;54.60;;;;;;6152011;29;19962;-67
2023/04/20 00:36:36;;;;;;;;;;;18.40;54.70;;;;;;6146868;29;20301;-67
2023/04/20 00:39:37;;;;;;;;;;;18.40;54.80;;;;;;6152298;29;19968;-67
2023/04/20 00:42:39;;;;;;;;;;;18.40;54.70;;;;;;6151745;28;19945;-67
2023/04/20 00:45:40;;;;;;;;;;;18.40;54.80;;;;;;6152322;29;19914;-67
2023/04/20 00:48:41;;;;;;;;;;;18.40;55.40;;;;;;6151870;29;19965;-66
2023/04/20 00:51:41;;;;;;;;;;;18.40;54.80;;;;;;6152077;29;19911;-67
2023/04/20 00:54:42;;;;;;;;;;;18.40;54.70;;;;;;6151375;29;20005;-68
2023/04/20 00:57:43;;;;;;;;;;;18.40;54.80;;;;;;6151537;29;19915;-67
2023/04/20 01:00:43;;;;;;;;;;;18.40;54.70;;;;;;6150108;29;19918;-66
2023/04/20 01:03:44;;;;;;;;;;;18.40;54.80;;;;;;6151567;29;20285;-66
2023/04/20 01:06:45;;;;;;;;;;;18.40;54.70;;;;;;6150941;29;19921;-67
2023/04/20 01:09:46;;;;;;;;;;;18.40;54.70;;;;;;6151407;28;19969;-67
2023/04/20 01:12:46;;;;;;;;;;;18.40;54.80;;;;;;6151228;29;20294;-67
2023/04/20 01:15:47;;;;;;;;;;;18.40;54.80;;;;;;6149379;28;20001;-67
2023/04/20 01:18:48;;;;;;;;;;;18.30;54.70;;;;;;6150821;29;19954;-66
2023/04/20 01:21:49;;;;;;;;;;;18.40;54.80;;;;;;6151000;29;19983;-67
2023/04/20 01:24:49;;;;;;;;;;;18.40;54.80;;;;;;6149443;29;19919;-67
2023/04/20 01:27:50;;;;;;;;;;;18.40;54.80;;;;;;6150969;29;19910;-67
2023/04/20 01:30:51;;;;;;;;;;;18.40;54.80;;;;;;6150866;29;19918;-67
2023/04/20 01:33:51;;;;;;;;;;;18.40;54.80;;;;;;6150826;29;19959;-67
2023/04/20 01:36:52;;;;;;;;;;;18.40;54.70;;;;;;6148976;29;20408;-67
2023/04/20 01:39:52;;;;;;;;;;;18.40;54.80;;;;;;6150551;29;19910;-67
2023/04/20 01:42:53;;;;;;;;;;;18.40;54.80;;;;;;6141195;29;19914;-67
2023/04/20 01:45:53;;;;;;;;;;;18.40;54.80;;;;;;6125489;29;19915;-67
2023/04/20 01:48:54;;;;;;;;;;;18.40;54.80;;;;;;6126556;29;19967;-67
2023/04/20 01:51:54;;;;;;;;;;;18.40;54.80;;;;;;6126784;29;19915;-66
2023/04/20 01:54:55;;;;;;;;;;;18.40;54.80;;;;;;6126207;29;19921;-67
2023/04/20 01:57:56;;;;;;;;;;;18.40;54.80;;;;;;6126336;29;19914;-66
2023/04/20 02:00:56;;;;;;;;;;;18.40;54.80;;;;;;6126280;29;19918;-67
2023/04/20 02:03:57;;;;;;;;;;;18.40;54.80;;;;;;6132493;29;19965;-67
2023/04/20 02:06:57;;;;;;;;;;;18.30;55.30;;;;;;6149708;28;19917;-67
2023/04/20 02:09:58;;;;;;;;;;;18.30;54.70;;;;;;6149551;29;19922;-67
2023/04/20 02:12:58;;;;;;;;;;;18.40;54.80;;;;;;6132525;29;19911;-66
2023/04/20 02:15:59;;;;;;;;;;;18.40;54.80;;;;;;6149590;28;19914;-66
2023/04/20 02:18:59;;;;;;;;;;;18.30;54.70;;;;;;6149561;29;19914;-66
2023/04/20 02:22:00;;;;;;;;;;;18.40;54.80;;;;;;6149797;29;19933;-66
2023/04/20 02:25:02;;;;;;;;;;;18.30;54.60;;;;;;6149430;28;19917;-67
2023/04/20 02:28:02;;;;;;;;;;;18.40;54.80;;;;;;6148624;28;19910;-66
2023/04/20 02:31:03;;;;;;;;;;;18.40;54.80;;;;;;6149327;29;20385;-67
2023/04/20 02:34:05;;;;;;;;;;;18.40;54.70;;;;;;6149603;29;20373;-67
2023/04/20 02:37:05;;;;;;;;;;;18.40;54.80;;;;;;6149307;29;20354;-66
2023/04/20 02:40:07;;;;;;;;;;;18.40;54.70;;;;;;6149118;29;19915;-67
2023/04/20 02:43:07;;;;;;;;;;;18.40;54.80;;;;;;6146963;29;19946;-67
2023/04/20 02:46:08;;;;;;;;;;;18.40;54.70;;;;;;6149047;28;19911;-66
2023/04/20 02:49:08;;;;;;;;;;;18.40;54.80;;;;;;6148779;29;19911;-66
2023/04/20 02:52:09;;;;;;;;;;;18.30;54.60;;;;;;6149055;29;19911;-66
2023/04/20 02:55:09;;;;;;;;;;;18.40;54.70;;;;;;6149023;28;20447;-66
2023/04/20 02:58:10;;;;;;;;;;;18.30;54.70;;;;;;6148477;29;20321;-67
2023/04/20 03:01:11;;;;;;;;;;;18.40;54.80;;;;;;6148449;29;20373;-67
2023/04/20 03:04:11;;;;;;;;;;;18.40;54.80;;;;;;6148347;29;19911;-66
2023/04/20 03:07:12;;;;;;;;;;;18.30;54.70;;;;;;6148469;29;19907;-67
2023/04/20 03:10:13;;;;;;;;;;;18.40;54.80;;;;;;6163280;28;20464;-66
2023/04/20 03:13:13;;;;;;;;;;;18.40;54.80;;;;;;6148542;29;19910;-67
2023/04/20 03:16:14;;;;;;;;;;;18.40;54.70;;;;;;6148337;29;20270;-67
2023/04/20 03:19:14;;;;;;;;;;;18.30;54.70;;;;;;6162995;28;20024;-67
2023/04/20 03:22:18;;;;;;;;;;;18.40;54.80;;;;;;6148238;29;19966;-67
2023/04/20 03:25:18;;;;;;;;;;;18.30;54.60;;;;;;6131188;29;19911;-67
2023/04/20 03:28:19;;;;;;;;;;;18.40;54.70;;;;;;6148256;29;19981;-67
2023/04/20 03:31:20;;;;;;;;;;;18.40;54.80;;;;;;6162853;28;19921;-67
2023/04/20 03:34:21;;;;;;;;;;;18.30;54.50;;;;;;6148090;29;19918;-67
2023/04/20 03:37:21;;;;;;;;;;;18.40;54.70;;;;;;6147714;29;19965;-67
2023/04/20 03:40:22;;;;;;;;;;;18.30;54.70;;;;;;6147975;29;19966;-66
2023/04/20 03:43:22;;;;;;;;;;;18.40;54.60;;;;;;6148156;29;20550;-67
2023/04/20 03:46:23;;;;;;;;;;;18.40;54.60;;;;;;6147975;29;19910;-66
2023/04/20 03:49:24;;;;;;;;;;;18.40;54.70;;;;;;6146487;29;19910;-67
2023/04/20 03:52:25;;;;;;;;;;;18.40;54.80;;;;;;6148110;29;19910;-67
2023/04/20 03:55:25;;;;;;;;;;;18.40;54.70;;;;;;6123029;29;19970;-66
2023/04/20 03:58:26;;;;;;;;;;;18.40;54.70;;;;;;6123686;29;20013;-67
2023/04/20 04:01:27;;;;;;;;;;;18.40;54.70;;;;;;6143620;29;19918;-67
2023/04/20 04:04:27;;;;;;;;;;;18.40;54.70;;;;;;6130421;28;20262;-67
2023/04/20 04:07:28;;;;;;;;;;;18.40;54.70;;;;;;6130419;29;19910;-67
2023/04/20 04:10:28;;;;;;;;;;;18.40;54.60;;;;;;6147556;29;19911;-67
2023/04/20 04:13:29;;;;;;;;;;;18.40;54.60;;;;;;6147767;29;19915;-67
2023/04/20 04:16:30;;;;;;;;;;;18.40;54.60;;;;;;6130455;29;19911;-67
2023/04/20 04:19:31;;;;;;;;;;;18.40;54.70;;;;;;6147459;29;20005;-67
2023/04/20 04:22:31;;;;;;;;;;;18.40;54.70;;;;;;6130179;29;19910;-67
2023/04/20 04:25:32;;;;;;;;;;;18.40;54.70;;;;;;6147659;28;20013;-67
2023/04/20 04:28:33;;;;;;;;;;;18.40;54.70;;;;;;6147519;29;19910;-67
2023/04/20 04:31:33;;;;;;;;;;;18.40;54.60;;;;;;6138830;29;20420;-67
2023/04/20 04:34:34;;;;;;;;;;;18.40;54.80;;;;;;6129769;29;19910;-68
2023/04/20 04:37:35;;;;;;;;;;;18.40;54.80;;;;;;6145381;29;19933;-68
2023/04/20 04:40:36;;;;;;;;;;;18.40;54.70;;;;;;6145970;29;20207;-68
2023/04/20 04:43:38;;;;;;;;;;;18.40;54.70;;;;;;6136336;29;19938;-68
2023/04/20 04:46:39;;;;;;;;;;;18.40;54.70;;;;;;6128617;29;19911;-66
2023/04/20 04:49:39;;;;;;;;;;;18.40;54.80;;;;;;6146865;28;19962;-68
2023/04/20 04:52:40;;;;;;;;;;;18.40;54.70;;;;;;6150046;29;19933;-69
2023/04/20 04:55:41;;;;;;;;;;;18.40;54.70;;;;;;6149074;29;19933;-70
2023/04/20 04:58:41;;;;;;;;;;;18.50;54.80;;;;;;6148962;29;19922;-70
2023/04/20 05:01:42;;;;;;;;;;;18.50;54.80;;;;;;6156865;28;20014;-70
2023/04/20 05:04:43;;;;;;;;;;;18.50;54.70;;;;;;6156529;28;19961;-71
2023/04/20 05:07:43;;;;;;;;;;;18.50;54.60;;;;;;6149425;29;20031;-69
2023/04/20 05:10:44;;;;;;;;;;;18.50;54.80;;;;;;6135326;29;19916;-70
2023/04/20 05:13:44;;;;;;;;;;;18.50;55.60;;;;;;6147635;29;19918;-71
2023/04/20 05:16:45;;;;;;;;;;;18.50;54.80;;;;;;6124328;29;19914;-71
2023/04/20 05:19:46;;;;;;;;;;;18.60;55.00;;;;;;6123921;29;19914;-72
2023/04/20 05:22:46;;;;;;;;;;;18.50;54.80;;;;;;6145384;29;19958;-71
2023/04/20 05:25:47;;;;;;;;;;;18.50;54.80;;;;;;6147967;28;20400;-72
2023/04/20 05:28:47;;;;;;;;;;;18.50;54.90;;;;;;6149307;29;20044;-71
2023/04/20 05:31:48;;;;;;;;;;;18.50;54.90;;;;;;6129681;29;19910;-72
2023/04/20 05:34:49;;;;;;;;;;;18.50;55.00;;;;;;6145921;29;19962;-72
2023/04/20 05:37:49;;;;;;;;;;;18.50;54.90;;;;;;6148956;29;19952;-70
2023/04/20 05:40:50;;;;;;;;;;;18.50;54.90;;;;;;6150149;29;19965;-69
2023/04/20 05:43:55;;;;;;;;;;;18.50;55.00;;;;;;6147609;29;19915;-69
2023/04/20 05:46:56;;;;;;;;;;;18.50;55.00;;;;;;6148622;28;19915;-69
2023/04/20 05:49:56;;;;;;;;;;;18.50;55.00;;;;;;6131904;29;20281;-69
2023/04/20 05:52:57;;;;;;;;;;;18.50;55.00;;;;;;6147713;29;19950;-69
2023/04/20 05:55:58;;;;;;;;;;;18.50;54.90;;;;;;6148564;28;19915;-69
2023/04/20 05:58:59;;;;;;;;;;;18.50;54.90;;;;;;6132099;29;20035;-69
2023/04/20 06:02:00;;;;;;;;;;;18.50;54.90;;;;;;6151984;28;19910;-69
2023/04/20 06:05:01;;;;;;;;;;;18.50;54.90;;;;;;6151412;28;20378;-69
2023/04/20 06:08:01;;;;;;;;;;;18.50;54.90;;;;;;6150709;29;19930;-69
2023/04/20 06:11:02;;;;;;;;;;;18.50;55.00;;;;;;6133815;29;19966;-69
2023/04/20 06:14:02;;;;;;;;;;;18.50;54.90;;;;;;6150967;29;19911;-69
2023/04/20 06:17:03;;;;;;;;;;;18.50;55.00;;;;;;6150947;28;20392;-69
2023/04/20 06:20:05;;;;;;;;;;;18.50;55.00;;;;;;6150524;29;19949;-69
2023/04/20 06:23:06;;;;;;;;;;;18.50;55.10;;;;;;6133318;29;19922;-69
2023/04/20 06:26:08;;;;;;;;;;;18.50;54.90;;;;;;6150416;28;20318;-69
2023/04/20 06:29:09;;;;;;;;;;;18.50;55.10;;;;;;6150980;29;19918;-69
2023/04/20 06:32:10;;;;;;;;;;;18.50;54.90;;;;;;6150428;29;19998;-69
2023/04/20 06:35:10;;;;;;;;;;;18.50;55.00;;;;;;6160245;28;19910;-69
2023/04/20 06:38:11;;;;;;;;;;;18.50;55.10;;;;;;6132944;29;19915;-69
2023/04/20 06:41:11;;;;;;;;;;;18.50;55.00;;;;;;6149918;29;19921;-69
2023/04/20 06:44:12;;;;;;;;;;;18.50;55.10;;;;;;6149573;28;19910;-69
2023/04/20 06:47:12;;;;;;;;;;;18.50;55.80;;;;;;6150110;29;19949;-69
2023/04/20 06:50:13;;;;;;;;;;;18.50;55.10;;;;;;6149002;29;19981;-69
2023/04/20 06:53:14;;;;;;;;;;;18.50;55.10;;;;;;6148849;29;20038;-69
2023/04/20 06:56:15;;;;;;;;;;;18.50;55.10;;;;;;6149929;29;19997;-69
2023/04/20 06:59:17;;;;;;;;;;;18.50;55.10;;;;;;6132824;29;19925;-69
2023/04/20 07:02:17;;;;;;;;;;;18.50;55.00;;;;;;6149792;29;19938;-69
2023/04/20 07:05:19;;;;;;;;;;;18.40;55.00;;;;;;6149916;29;19910;-69
2023/04/20 07:08:19;;;;;;;;;;;18.40;55.00;;;;;;6147262;29;19922;-69
2023/04/20 07:11:20;;;;;;;;;;;18.40;54.80;;;;;;6132343;29;19915;-69
2023/04/20 07:14:21;;;;;;;;;;;18.40;54.80;;;;;;6131832;28;19918;-69
2023/04/20 07:17:21;;;;;;;;;;;18.40;54.90;;;;;;6149817;29;20400;-69
2023/04/20 07:20:22;;;;;;;;;;;18.50;54.90;;;;;;6149407;29;19911;-69
2023/04/20 07:23:22;;;;;;;;;;;18.40;54.90;;;;;;6149904;29;20005;-69
2023/04/20 07:26:26;;;;;;;;;;;18.50;54.80;;;;;;6149068;29;19911;-69
2023/04/20 07:29:26;;;;;;;;;;;18.50;54.90;;;;;;6148350;29;19975;-69
2023/04/20 07:32:27;;;;;;;;;;;18.50;55.00;;;;;;6149392;29;19926;-69
2023/04/20 07:35:27;;;;;;;;;;;18.50;55.00;;;;;;6149138;29;19911;-69
2023/04/20 07:38:28;;;;;;;;;;;18.50;55.00;;;;;;6148978;29;20026;-69
2023/04/20 07:41:29;;;;;;;;;;;18.40;54.90;;;;;;6132271;29;19911;-69
2023/04/20 07:44:29;;;;;;;;;;;18.50;54.90;;;;;;6149046;29;20384;-69
2023/04/20 07:47:32;;;;;;;;;;;18.50;54.90;;;;;;6149149;29;20322;-70
2023/04/20 07:50:33;;;;;;;;;;;18.50;55.00;;;;;;6149339;29;19910;-69
2023/04/20 07:53:34;;;;;;;;;;;18.50;55.00;;;;;;6148870;29;20429;-69
2023/04/20 07:56:34;;;;;;;;;;;18.50;54.90;;;;;;6149014;28;19933;-69
2023/04/20 07:59:35;;;;;;;;;;;18.50;55.00;;;;;;6148706;29;20368;-69
2023/04/20 08:02:36;;;;;;;;;;;18.50;54.90;;;;;;6148932;29;19957;-69
2023/04/20 08:05:37;;;;;;;;;;;18.50;55.00;;;;;;6148728;28;19911;-69
2023/04/20 08:08:37;;;;;;;;;;;18.50;54.90;;;;;;6128679;29;19947;-69
2023/04/20 08:11:40;;;;;;;;;;;18.50;54.80;;;;;;6144857;29;20202;-69
2023/04/20 08:14:41;;;;;;;;;;;18.50;54.90;;;;;;6129061;28;19910;-69
2023/04/20 08:17:42;;;;;;;;;;;18.50;55.00;;;;;;6147203;29;19925;-69
2023/04/20 08:20:44;;;;;;;;;;;18.50;54.90;;;;;;6146108;28;19917;-70
2023/04/20 08:23:45;;;;;;;;;;;18.50;54.80;;;;;;6147907;28;20578;-69
2023/04/20 08:26:46;;;;;;;;;;;18.50;54.90;;;;;;6152643;29;19921;-69
2023/04/20 08:29:46;;;;;;;;;;;18.50;54.70;;;;;;6152636;29;19917;-69
2023/04/20 08:32:47;;;;;;;;;;;18.50;54.60;;;;;;6152623;29;19917;-69
2023/04/20 08:35:49;;;;;;;;;;;18.50;54.60;;;;;;6148001;28;19910;-69
2023/04/20 08:38:52;;;;;;;;;;;18.50;54.60;;;;;;6152943;29;19914;-69
2023/04/20 08:41:54;;;;;;;;;;;18.50;54.70;;;;;;6151730;29;20271;-69
2023/04/20 08:44:56;;;;;;;;;;;18.50;54.70;;;;;;6150102;28;19969;-70
2023/04/20 08:47:57;;;;;;;;;;;18.50;54.60;;;;;;6152649;29;19914;-70
2023/04/20 08:50:57;;;;;;;;;;;18.50;54.60;;;;;;6152869;29;19911;-69
2023/04/20 08:53:58;;;;;;;;;;;18.50;54.60;;;;;;6151466;29;19950;-69
2023/04/20 08:57:00;;;;;;;;;;;18.50;54.80;;;;;;6152684;28;19945;-69
2023/04/20 09:00:01;;;;;;;;;;;18.50;54.90;;;;;;6152821;29;20297;-69
2023/04/20 09:03:02;;;;;;;;;;;18.50;54.70;;;;;;6152653;29;19917;-69
2023/04/20 09:06:03;;;;;;;;;;;18.50;54.90;;;;;;6152358;28;19915;-69
2023/04/20 09:09:08;;;;;;;;;;;18.50;54.80;;;;;;6152272;29;19923;-69
2023/04/20 09:12:09;;;;;;;;;;;18.50;54.90;;;;;;6152765;29;19915;-69
2023/04/20 09:15:10;;;;;;;;;;;18.50;54.90;;;;;;6166577;28;20005;-69
2023/04/20 09:18:13;;;;;;;;;;;18.50;54.90;;;;;;6152252;29;19915;-69
2023/04/20 09:21:13;;;;;;;;;;;18.40;54.80;;;;;;6151851;29;19918;-69
2023/04/20 09:24:14;;;;;;;;;;;18.50;54.90;;;;;;6152143;29;19910;-69
2023/04/20 09:27:15;;;;;;;;;;;18.40;54.80;;;;;;6146693;29;19917;-70
2023/04/20 09:30:16;;;;;;;;;;;18.40;54.60;;;;;;6152180;29;19915;-69
2023/04/20 09:33:18;;;;;;;;;;;18.40;54.80;;;;;;6151936;29;20378;-69
2023/04/20 09:36:20;;;;;;;;;;;18.40;54.80;;;;;;6151016;28;19921;-69
2023/04/20 09:39:21;;;;;;;;;;;18.40;54.80;;;;;;6151648;29;19933;-69
2023/04/20 09:42:26;;;;;;;;;;;18.40;54.80;;;;;;6151848;29;19917;-69
2023/04/20 09:45:27;;;;;;;;;;;18.40;54.80;;;;;;6151250;29;19914;-69
2023/04/20 09:48:28;;;;;;;;;;;18.40;54.70;;;;;;6151454;29;19914;-69
2023/04/20 09:51:30;;;;;;;;;;;18.40;54.70;;;;;;6149128;29;19910;-70
2023/04/20 09:54:31;;;;;;;;;;;18.40;54.80;;;;;;6151405;28;19910;-69
2023/04/20 09:57:31;;;;;;;;;;;18.40;54.80;;;;;;6126210;29;19938;-69
2023/04/20 10:00:32;;;;;;;;;;;18.40;54.80;;;;;;6130847;29;19960;-69
2023/04/20 10:03:32;;;;;;;;;;;18.50;54.70;;;;;;6133484;29;19911;-69
2023/04/20 10:06:34;;;;;;;;;;;18.40;54.80;;;;;;6151040;28;19927;-69
2023/04/20 10:09:36;;;;;;;;;;;18.40;54.80;;;;;;6150711;29;19930;-69
2023/04/20 10:12:50;;;;;;;;;;;18.40;54.60;;;;;;6143993;29;20425;-70
2023/04/20 10:15:50;;;;;;;;;;;18.40;54.80;;;;;;6128279;29;20074;-69
2023/04/20 10:18:58;;;;;;;;;;;18.40;54.70;;;;;;6149737;29;20373;-69
2023/04/20 10:21:58;;;;;;;;;;;18.40;54.80;;;;;;6150478;29;20373;-69
2023/04/20 10:25:00;;;;;;;;;;;18.50;54.90;;;;;;6150614;29;20001;-69
2023/04/20 10:28:08;;;;;;;;;;;18.40;54.80;;;;;;6150743;29;19914;-69
2023/04/20 10:31:12;;;;;;;;;;;18.50;54.70;;;;;;6132972;29;19930;-69
2023/04/20 10:34:13;;;;;;;;;;;18.50;54.70;;;;;;6150511;29;19917;-69
2023/04/20 10:37:14;;;;;;;;;;;18.50;54.80;;;;;;6120716;29;19917;-69
2023/04/20 10:40:15;;;;;;;;;;;18.50;54.80;;;;;;6146857;29;19914;-69
2023/04/20 10:43:20;;;;;;;;;;;18.40;54.70;;;;;;6149987;29;19921;-69
2023/04/20 10:46:21;;;;;;;;;;;18.40;54.80;;;;;;6162223;28;19973;-70
2023/04/20 10:49:26;;;;;;;;;;;18.50;54.80;;;;;;6149412;29;20385;-68
2023/04/20 10:52:33;;;;;;;;;;;18.50;54.80;;;;;;6139309;29;19918;-68
2023/04/20 10:55:34;;;;;;;;;;;18.50;54.80;;;;;;6145494;28;20273;-68
2023/04/20 10:58:35;;;;;;;;;;;18.50;54.90;;;;;;6146042;29;19915;-68
2023/04/20 11:01:37;;;;;;;;;;;18.50;54.80;;;;;;6144337;29;19925;-68
2023/04/20 11:04:37;;;;;;;;;;;18.50;54.90;;;;;;6145311;28;19969;-68
2023/04/20 11:07:46;;;;;;;;;;;18.50;54.90;;;;;;6146899;29;19911;-68
2023/04/20 11:10:47;;;;;;;;;;;18.50;55.00;;;;;;6148309;29;19922;-69
2023/04/20 11:13:47;;;;;;;;;;;18.50;55.00;;;;;;6147292;29;19910;-68
2023/04/20 11:16:51;;;;;;;;;;;18.50;55.00;;;;;;6147623;29;19917;-69
2023/04/20 11:20:03;;;;;;;;;;;18.50;54.90;;;;;;6147731;29;19958;-69
2023/04/20 11:23:04;;;;;;;;;;;18.50;55.00;;;;;;6147666;29;19910;-69
2023/04/20 11:26:05;;;;;;;;;;;18.50;55.10;;;;;;6147694;28;20001;-69
2023/04/20 11:29:06;;;;;;;;;;;18.50;55.00;;;;;;6130513;29;19920;-69
2023/04/20 11:32:08;;;;;;;;;;;18.50;55.00;;;;;;6147100;29;20290;-69
2023/04/20 11:35:09;;;;;;;;;;;18.50;55.10;;;;;;6130643;29;19957;-68
2023/04/20 11:38:10;;;;;;;;;;;18.50;55.00;;;;;;6147295;29;20259;-68
2023/04/20 11:41:10;;;;;;;;;;;18.50;55.00;;;;;;6147608;29;19915;-70
2023/04/20 11:44:11;;;;;;;;;;;18.50;55.10;;;;;;6147634;29;20002;-69
2023/04/20 11:47:12;;;;;;;;;;;18.50;55.00;;;;;;6148005;29;19910;-69
2023/04/20 11:50:13;;;;;;;;;;;18.50;55.10;;;;;;6147504;29;19911;-70
2023/04/20 11:53:14;;;;;;;;;;;18.50;55.10;;;;;;6140523;29;19940;-69
2023/04/20 11:56:15;;;;;;;;;;;18.50;55.10;;;;;;6147779;28;20374;-69
2023/04/20 11:59:18;;;;;;;;;;;18.50;55.10;;;;;;6142289;28;20546;-70
2023/04/20 12:02:19;;;;;;;;;;;18.50;55.10;;;;;;6152129;29;20605;-69
2023/04/20 12:05:19;;;;;;;;;;;18.50;55.10;;;;;;6152676;28;19914;-70
2023/04/20 12:08:20;;;;;;;;;;;18.50;55.80;;;;;;6149455;28;19933;-69
2023/04/20 12:11:21;;;;;;;;;;;18.50;55.10;;;;;;6151921;29;19911;-69
2023/04/20 12:14:21;;;;;;;;;;;18.50;55.10;;;;;;6152078;29;19910;-70
2023/04/20 12:17:22;;;;;;;;;;;18.50;55.20;;;;;;6150978;29;20357;-70
2023/04/20 12:20:22;;;;;;;;;;;18.50;55.40;;;;;;6147861;29;19926;-70
2023/04/20 12:23:23;;;;;;;;;;;18.50;55.20;;;;;;6146960;29;19910;-70
2023/04/20 12:26:23;;;;;;;;;;;18.50;55.10;;;;;;6150785;29;19911;-70
2023/04/20 12:29:24;;;;;;;;;;;18.50;55.10;;;;;;6147035;29;19911;-70
2023/04/20 12:32:24;;;;;;;;;;;18.50;55.10;;;;;;6150667;28;19914;-70
2023/04/20 12:35:25;;;;;;;;;;;18.50;55.20;;;;;;6150029;29;19914;-71
2023/04/20 12:38:26;;;;;;;;;;;18.50;55.00;;;;;;6151613;29;19919;-70
2023/04/20 12:41:26;;;;;;;;;;;18.60;54.90;;;;;;6149211;29;19910;-71
2023/04/20 12:44:27;;;;;;;;;;;18.60;54.80;;;;;;6146082;28;19918;-70
2023/04/20 12:47:28;;;;;;;;;;;18.60;54.70;;;;;;6151242;29;20234;-71
2023/04/20 12:50:29;;;;;;;;;;;18.60;54.60;;;;;;6150526;29;19910;-71
2023/04/20 12:53:29;;;;;;;;;;;18.60;54.60;;;;;;6151336;29;19977;-70
2023/04/20 12:56:30;;;;;;;;;;;18.60;54.50;;;;;;6147475;29;19997;-70
2023/04/20 12:59:30;;;;;;;;;;;18.60;54.50;;;;;;6147776;29;19921;-70
2023/04/20 13:02:31;;;;;;;;;;;18.60;54.60;;;;;;6151239;29;19917;-71
2023/04/20 13:05:32;;;;;;;;;;;18.60;54.70;;;;;;6150735;29;19998;-70
2023/04/20 13:08:33;;;;;;;;;;;18.60;54.70;;;;;;6150052;29;19923;-70
2023/04/20 13:11:33;;;;;;;;;;;18.60;54.90;;;;;;6148505;28;20435;-71
2023/04/20 13:14:34;;;;;;;;;;;18.60;55.00;;;;;;6142980;28;19968;-70
2023/04/20 13:17:35;;;;;;;;;;;18.60;55.10;;;;;;6151035;29;20009;-71
2023/04/20 13:20:36;;;;;;;;;;;18.60;55.00;;;;;;6149910;29;20208;-70
2023/04/20 13:23:37;;;;;;;;;;;18.60;55.10;;;;;;6127704;29;20353;-70
2023/04/20 13:26:38;;;;;;;;;;;18.60;55.10;;;;;;6147584;28;19915;-70
2023/04/20 13:29:45;;;;;;;;;;;18.50;55.10;;;;;;6150068;29;20694;-70
2023/04/20 13:33:09;;;;;;;;;;;18.50;55.10;;;;;;6148891;29;19910;-70
2023/04/20 13:36:10;;;;;;;;;;;18.60;55.10;;;;;;6135943;29;19986;-70
2023/04/20 13:39:11;;;;;;;;;;;18.60;55.10;;;;;;6133316;28;20445;-71
2023/04/20 13:42:12;;;;;;;;;;;18.50;55.10;;;;;;6145713;29;19914;-70
2023/04/20 13:45:12;;;;;;;;;;;18.60;55.30;;;;;;6149908;29;20297;-70
2023/04/20 13:48:13;;;;;;;;;;;18.50;55.20;;;;;;6149072;29;20374;-70
2023/04/20 13:51:13;;;;;;;;;;;18.50;55.20;;;;;;6147069;29;19919;-71
2023/04/20 13:54:14;;;;;;;;;;;18.50;55.20;;;;;;6148483;28;19917;-71
2023/04/20 13:57:15;;;;;;;;;;;18.50;55.20;;;;;;6148198;28;19914;-71
2023/04/20 14:00:16;;;;;;;;;;;18.50;55.20;;;;;;6147955;29;20009;-70
2023/04/20 14:03:18;;;;;;;;;;;18.50;55.10;;;;;;6149630;29;20278;-70
2023/04/20 14:06:19;;;;;;;;;;;18.50;55.20;;;;;;6148801;29;19933;-70
2023/04/20 14:09:20;;;;;;;;;;;18.50;55.20;;;;;;6131742;29;19931;-70
2023/04/20 14:12:20;;;;;;;;;;;18.50;55.20;;;;;;6148474;29;20583;-71
2023/04/20 14:15:21;;;;;;;;;;;18.50;55.20;;;;;;6141879;29;19914;-70
2023/04/20 14:18:22;;;;;;;;;;;18.50;55.20;;;;;;6149651;29;19919;-70
2023/04/20 14:21:23;;;;;;;;;;;18.50;55.20;;;;;;6148411;28;20029;-70
2023/04/20 14:24:23;;;;;;;;;;;18.50;55.20;;;;;;6141985;28;19933;-70
2023/04/20 14:27:24;;;;;;;;;;;18.50;55.20;;;;;;6131261;29;19914;-70
2023/04/20 14:30:25;;;;;;;;;;;18.50;55.20;;;;;;6147292;29;19918;-70
2023/04/20 14:33:26;;;;;;;;;;;18.50;55.20;;;;;;6148689;28;19939;-71
2023/04/20 14:36:26;;;;;;;;;;;18.50;55.30;;;;;;6144417;28;19934;-71
2023/04/20 14:39:27;;;;;;;;;;;18.50;55.30;;;;;;6148483;29;20017;-70
2023/04/20 14:42:28;;;;;;;;;;;18.50;55.30;;;;;;6123348;29;19966;-70
2023/04/20 14:45:28;;;;;;;;;;;18.50;55.30;;;;;;6129915;28;19914;-70
2023/04/20 14:48:29;;;;;;;;;;;18.50;55.30;;;;;;6138057;29;19962;-70
2023/04/20 14:51:29;;;;;;;;;;;18.50;55.30;;;;;;6137474;29;19958;-70
2023/04/20 14:54:30;;;;;;;;;;;18.50;55.30;;;;;;6144945;28;20358;-70
2023/04/20 14:57:31;;;;;;;;;;;18.50;55.30;;;;;;6138878;29;19978;-70
2023/04/20 15:00:31;;;;;;;;;;;18.50;55.30;;;;;;6144240;29;19910;-70
2023/04/20 15:03:32;;;;;;;;;;;18.50;55.30;;;;;;6147501;29;20366;-70
2023/04/20 15:06:35;;;;;;;;;;;18.50;55.30;;;;;;6134041;29;20055;-70
2023/04/20 15:09:36;;;;;;;;;;;18.50;55.30;;;;;;6143254;29;19930;-71
2023/04/20 15:12:36;;;;;;;;;;;18.50;55.30;;;;;;6130116;29;19914;-70
2023/04/20 15:15:37;;;;;;;;;;;18.50;55.30;;;;;;6147546;28;20021;-70
2023/04/20 15:18:37;;;;;;;;;;;18.50;55.30;;;;;;6152688;28;19944;-70
2023/04/20 15:21:38;;;;;;;;;;;18.50;55.30;;;;;;6140719;29;19921;-70
2023/04/20 15:24:39;;;;;;;;;;;18.50;55.40;;;;;;6130348;28;19934;-70
2023/04/20 15:27:40;;;;;;;;;;;18.50;55.40;;;;;;6147502;29;19910;-70
2023/04/20 15:30:40;;;;;;;;;;;18.50;55.40;;;;;;6146027;29;19937;-71
2023/04/20 15:33:42;;;;;;;;;;;18.50;55.40;;;;;;6145047;28;20389;-70
2023/04/20 15:36:43;;;;;;;;;;;18.50;55.30;;;;;;6127221;29;19914;-70
2023/04/20 15:39:43;;;;;;;;;;;18.50;55.40;;;;;;6129847;29;20416;-70
2023/04/20 15:42:44;;;;;;;;;;;18.50;55.40;;;;;;6143228;29;20370;-71
2023/04/20 15:45:44;;;;;;;;;;;18.50;55.40;;;;;;6146074;29;19922;-71
2023/04/20 15:48:45;;;;;;;;;;;18.50;55.40;;;;;;6139613;29;19914;-70
2023/04/20 15:51:46;;;;;;;;;;;18.50;55.40;;;;;;6146280;29;19922;-70
2023/04/20 15:54:47;;;;;;;;;;;18.50;55.50;;;;;;6146983;29;20313;-70
2023/04/20 15:57:48;;;;;;;;;;;18.50;55.40;;;;;;6142169;29;19930;-70
2023/04/20 16:00:48;;;;;;;;;;;18.50;55.40;;;;;;6145607;29;19914;-70
2023/04/20 16:03:50;;;;;;;;;;;18.50;55.40;;;;;;6146139;29;19914;-70
2023/04/20 16:06:50;;;;;;;;;;;18.50;55.40;;;;;;6146828;29;19919;-70
2023/04/20 16:09:51;;;;;;;;;;;18.50;55.40;;;;;;6146013;28;19970;-71
2023/04/20 16:12:52;;;;;;;;;;;18.50;55.40;;;;;;6139294;29;19921;-70
2023/04/20 16:15:53;;;;;;;;;;;18.50;55.40;;;;;;6127728;29;19914;-71
2023/04/20 16:18:54;;;;;;;;;;;18.50;55.50;;;;;;6145120;29;20297;-70
2023/04/20 16:21:55;;;;;;;;;;;18.50;55.50;;;;;;6138653;29;19911;-70
2023/04/20 16:24:56;;;;;;;;;;;18.50;55.50;;;;;;6144903;29;20456;-70
2023/04/20 16:27:57;;;;;;;;;;;18.50;55.50;;;;;;6139154;29;19914;-70
2023/04/20 16:30:57;;;;;;;;;;;18.50;55.50;;;;;;6143746;29;19937;-70
2023/04/20 16:33:59;;;;;;;;;;;18.50;55.50;;;;;;6118220;29;20010;-70
2023/04/20 16:37:00;;;;;;;;;;;18.50;55.50;;;;;;6120029;29;19911;-70
2023/04/20 16:40:01;;;;;;;;;;;18.50;55.60;;;;;;6137208;29;19958;-70
2023/04/20 16:43:02;;;;;;;;;;;18.50;55.50;;;;;;6119978;29;19919;-70
2023/04/20 16:46:03;;;;;;;;;;;18.50;55.60;;;;;;6139627;28;20610;-70
2023/04/20 16:49:04;;;;;;;;;;;18.50;55.50;;;;;;6146223;29;19910;-70
2023/04/20 16:52:04;;;;;;;;;;;18.50;55.50;;;;;;6129131;29;19942;-70
2023/04/20 16:55:05;;;;;;;;;;;18.50;55.50;;;;;;6131890;28;19965;-70
2023/04/20 16:58:06;;;;;;;;;;;18.50;55.50;;;;;;6131136;29;20377;-70
2023/04/20 17:01:07;;;;;;;;;;;18.50;55.60;;;;;;6141698;29;20006;-70
2023/04/20 17:04:08;;;;;;;;;;;18.50;55.60;;;;;;6127508;29;19918;-70
2023/04/20 17:07:08;;;;;;;;;;;18.50;55.60;;;;;;6148911;29;20386;-70
2023/04/20 17:10:09;;;;;;;;;;;18.50;55.60;;;;;;6130961;29;19930;-70
2023/04/20 17:13:10;;;;;;;;;;;18.50;55.60;;;;;;6148334;29;19910;-70
2023/04/20 17:16:10;;;;;;;;;;;18.50;55.60;;;;;;6131554;29;19914;-70
2023/04/20 17:19:11;;;;;;;;;;;18.50;55.60;;;;;;6146931;29;19957;-71
2023/04/20 17:22:11;;;;;;;;;;;18.50;55.60;;;;;;6130901;29;19914;-70
2023/04/20 17:25:12;;;;;;;;;;;18.50;55.60;;;;;;6127059;28;19946;-70
2023/04/20 17:28:13;;;;;;;;;;;18.50;55.60;;;;;;6126034;29;19911;-70
2023/04/20 17:31:13;;;;;;;;;;;18.50;55.60;;;;;;6149233;29;20005;-69